Portada
METAR-TAF:

METAR-TAF

Aeropuertos :

Aeropuerto de Biarritz-Anglet-Bayonne

Biarritz, Francia

latitud: 43-28N, longitud: 001-32W, altitud: 75 m

Observación

El informe se hizo hace 20 minutos, a las 23:30 UTC
Viento 4 kt del este
Temperatura 9°C
Humedad 81%
Presión 1014 hPa
Visibilidad 10 km o más
Escasas nubes a una altura de 5800 ft
Cielo cubierto a una altura de 8000 ft

METAR: LFBZ 312330Z AUTO 08004KT 9999 FEW058 OVC080 09/06 Q1014

Hora: 01:50 (23:50 UTC)


TAF: falta

Observaciones y pronósticos meteorológicos de más de 4000 aeropuertos (mensajes METAR y TAF).

Los puntos amarillos y rojos representan las estaciones disponibles.

Ponga el ratón en el punto deseado para ver el nombre de la estación.

Haga clic para ver las observaciones y los pronósticos meteorológicos.

Para cambiar el mapa : haga clic en los botones verdes con una cruz de color negro para hacer un zoom, en el botón verde con un guión para alejar o en las flechas verdes para mapas adyacentes.


METAR-TAF: